createdAt,value
2024-04-18T00:00:27.039Z,59.69
2024-04-18T00:01:27.015Z,64.51
2024-04-18T00:02:27.053Z,63.87
2024-04-18T00:03:27.056Z,62.60
2024-04-18T00:04:27.037Z,59.64
2024-04-18T00:05:27.006Z,63.66
2024-04-18T00:06:26.967Z,62.67
2024-04-18T00:07:26.889Z,63.03
2024-04-18T00:08:26.887Z,59.73
2024-04-18T00:09:26.940Z,67.47
2024-04-18T00:10:27.069Z,64.18
2024-04-18T00:11:26.914Z,59.84
2024-04-18T00:12:26.877Z,62.34
2024-04-18T00:13:26.963Z,63.31
2024-04-18T00:14:26.832Z,67.81
2024-04-18T00:15:27.602Z,62.40
2024-04-18T00:16:26.827Z,62.77
2024-04-18T00:17:26.988Z,61.42
2024-04-18T00:18:26.992Z,59.92
2024-04-18T00:19:26.813Z,63.66
2024-04-18T00:20:27.037Z,60.35
2024-04-18T00:21:26.894Z,64.76
2024-04-18T00:22:26.898Z,65.07
2024-04-18T00:23:27.780Z,64.46
2024-04-18T00:24:26.797Z,67.90
2024-04-18T00:25:26.945Z,64.41
2024-04-18T00:26:26.777Z,63.43
2024-04-18T00:27:26.799Z,63.48
2024-04-18T00:28:26.792Z,66.76
2024-04-18T00:29:26.764Z,69.73
2024-04-18T00:30:26.775Z,71.38
2024-04-18T00:31:26.748Z,64.96
2024-04-18T00:32:26.740Z,61.08
2024-04-18T00:33:26.801Z,67.08
2024-04-18T00:34:26.750Z,64.27
2024-04-18T00:35:26.737Z,65.70
2024-04-18T00:36:26.722Z,59.62
2024-04-18T00:37:26.715Z,59.70
2024-04-18T00:38:26.725Z,62.49
2024-04-18T00:39:26.744Z,59.94
2024-04-18T00:40:26.689Z,66.61
2024-04-18T00:41:26.813Z,69.96
2024-04-18T00:42:26.831Z,60.00
2024-04-18T00:43:26.690Z,64.95
2024-04-18T00:44:26.653Z,64.01
2024-04-18T00:45:26.747Z,64.85
2024-04-18T00:46:26.633Z,59.87
2024-04-18T00:47:26.785Z,72.14
2024-04-18T00:48:26.812Z,63.78
2024-04-18T00:49:26.659Z,62.91
2024-04-18T00:50:26.766Z,63.22
2024-04-18T00:51:26.625Z,66.08
2024-04-18T00:52:26.660Z,59.79
2024-04-18T00:53:26.915Z,59.71
2024-04-18T00:54:26.595Z,59.74
2024-04-18T00:55:26.597Z,65.07
2024-04-18T00:56:26.607Z,71.76
2024-04-18T00:57:26.597Z,60.63
2024-04-18T00:58:26.627Z,64.91
2024-04-18T00:59:26.554Z,62.15
2024-04-18T01:00:26.646Z,71.59
2024-04-18T01:01:26.588Z,63.56
2024-04-18T01:02:26.570Z,70.01
2024-04-18T01:03:26.601Z,62.82
2024-04-18T01:04:26.641Z,59.89
2024-04-18T01:05:26.528Z,59.84
2024-04-18T01:06:26.575Z,59.76
2024-04-18T01:07:26.514Z,60.42
2024-04-18T01:08:26.487Z,70.31
2024-04-18T01:09:26.510Z,68.42
2024-04-18T01:10:26.515Z,59.78
2024-04-18T01:11:26.651Z,63.28
2024-04-18T01:12:26.488Z,59.90
2024-04-18T01:13:26.508Z,61.94
2024-04-18T01:14:26.449Z,64.13
2024-04-18T01:15:26.518Z,59.61
2024-04-18T01:16:26.459Z,63.30
2024-04-18T01:17:26.473Z,59.98
2024-04-18T01:18:26.543Z,63.15
2024-04-18T01:19:26.424Z,64.83
2024-04-18T01:20:26.456Z,64.75
2024-04-18T01:21:26.439Z,65.11
2024-04-18T01:22:26.434Z,67.92
2024-04-18T01:23:26.422Z,67.37
2024-04-18T01:24:27.422Z,61.92
2024-04-18T01:25:26.397Z,62.95
2024-04-18T01:26:26.388Z,65.29
2024-04-18T01:27:26.407Z,65.34
2024-04-18T01:28:26.402Z,64.17
2024-04-18T01:29:26.354Z,60.17
2024-04-18T01:30:26.388Z,65.61
2024-04-18T01:31:26.333Z,62.76
2024-04-18T01:32:26.413Z,65.89
2024-04-18T01:33:26.768Z,64.25
2024-04-18T01:34:27.599Z,59.98
2024-04-18T01:35:26.332Z,62.72
2024-04-18T01:36:26.375Z,60.14
2024-04-18T01:37:26.358Z,66.74
2024-04-18T01:38:26.287Z,60.30
2024-04-18T01:39:26.333Z,60.05
2024-04-18T01:40:26.286Z,62.90
2024-04-18T01:41:26.278Z,59.86
2024-04-18T01:42:26.335Z,59.86
2024-04-18T01:43:26.374Z,62.99
2024-04-18T01:44:26.246Z,60.28
2024-04-18T01:45:26.349Z,61.57
2024-04-18T01:46:26.257Z,64.02
2024-04-18T01:47:26.309Z,62.27
2024-04-18T01:48:26.372Z,61.97
2024-04-18T01:49:26.263Z,66.04
2024-04-18T01:50:26.222Z,59.94
2024-04-18T01:51:26.266Z,61.57
2024-04-18T01:52:26.245Z,60.50
2024-04-18T01:53:26.223Z,64.99
2024-04-18T01:54:26.243Z,69.07
2024-04-18T01:55:26.212Z,66.95
2024-04-18T01:56:26.212Z,64.47
2024-04-18T01:57:26.204Z,64.11
2024-04-18T01:58:26.202Z,62.83
2024-04-18T01:59:26.190Z,64.24
2024-04-18T02:00:26.189Z,62.51
2024-04-18T02:01:26.239Z,63.71
2024-04-18T02:02:26.158Z,60.17
2024-04-18T02:03:26.224Z,59.87
2024-04-18T02:04:26.257Z,62.65
2024-04-18T02:05:26.111Z,66.16
2024-04-18T02:06:26.329Z,69.53
2024-04-18T02:07:26.148Z,70.01
2024-04-18T02:08:26.119Z,65.75
2024-04-18T02:09:26.181Z,63.39
2024-04-18T02:10:26.110Z,59.86
2024-04-18T02:11:26.115Z,61.99
2024-04-18T02:13:26.083Z,59.92
2024-04-18T02:14:26.059Z,65.21
2024-04-18T02:15:26.181Z,62.94
2024-04-18T02:16:26.104Z,61.67
2024-04-18T02:17:26.071Z,67.43
2024-04-18T02:18:26.090Z,65.85
2024-04-18T02:19:26.074Z,62.12
2024-04-18T02:20:26.091Z,63.79
2024-04-18T02:21:26.050Z,59.96
2024-04-18T02:22:26.026Z,65.51
2024-04-18T02:23:26.001Z,68.15
2024-04-18T02:24:26.069Z,63.56
2024-04-18T02:25:26.052Z,60.36
2024-04-18T02:26:26.014Z,62.76
2024-04-18T02:27:26.028Z,64.63
2024-04-18T02:28:25.986Z,72.95
2024-04-18T02:29:25.991Z,67.81
2024-04-18T02:30:27.054Z,60.01
2024-04-18T02:31:26.968Z,59.91
2024-04-18T02:32:26.198Z,59.94
2024-04-18T02:33:25.975Z,63.53
2024-04-18T02:34:25.996Z,60.34
2024-04-18T02:35:26.934Z,60.40
2024-04-18T02:36:25.943Z,63.33
2024-04-18T02:37:25.905Z,64.70
2024-04-18T02:38:25.897Z,65.07
2024-04-18T02:39:25.949Z,67.69
2024-04-18T02:40:25.932Z,61.57
2024-04-18T02:41:25.923Z,67.13
2024-04-18T02:42:25.925Z,60.02
2024-04-18T02:43:25.872Z,66.85
2024-04-18T02:44:25.874Z,65.64
2024-04-18T02:45:25.875Z,64.34
2024-04-18T02:46:25.902Z,65.24
2024-04-18T02:47:25.902Z,65.87
2024-04-18T02:48:25.958Z,64.38
2024-04-18T02:49:25.899Z,68.81
2024-04-18T02:50:25.841Z,64.92
2024-04-18T02:51:25.912Z,67.48
2024-04-18T02:52:25.829Z,67.93
2024-04-18T02:53:25.879Z,67.74
2024-04-18T02:54:25.839Z,61.35
2024-04-18T02:55:25.837Z,64.75
2024-04-18T02:56:25.838Z,66.79
2024-04-18T02:57:25.837Z,68.57
2024-04-18T02:58:25.795Z,72.93
2024-04-18T02:59:25.779Z,66.84
2024-04-18T03:00:25.790Z,71.89
2024-04-18T03:01:25.822Z,66.94
2024-04-18T03:02:25.811Z,67.13
2024-04-18T03:03:25.804Z,70.67
2024-04-18T03:04:25.788Z,63.61
2024-04-18T03:05:25.776Z,64.39
2024-04-18T03:06:25.794Z,65.52
2024-04-18T03:07:25.775Z,67.00
2024-04-18T03:08:25.731Z,69.84
2024-04-18T03:09:25.762Z,70.35
2024-04-18T03:10:25.770Z,74.44
2024-04-18T03:11:25.944Z,63.32
2024-04-18T03:12:25.768Z,63.62
2024-04-18T03:13:25.701Z,68.44
2024-04-18T03:14:25.778Z,71.16
2024-04-18T03:15:25.701Z,67.77
2024-04-18T03:16:25.718Z,69.54
2024-04-18T03:17:25.753Z,67.28
2024-04-18T03:18:25.721Z,66.70
2024-04-18T03:19:25.681Z,72.33
2024-04-18T03:20:25.673Z,71.10
2024-04-18T03:21:26.676Z,68.32
2024-04-18T03:22:25.695Z,65.96
2024-04-18T03:23:25.673Z,70.96
2024-04-18T03:24:25.690Z,69.72
2024-04-18T03:25:25.642Z,70.99
2024-04-18T03:26:25.647Z,70.18
2024-04-18T03:27:25.643Z,67.21
2024-04-18T03:28:25.972Z,64.01
2024-04-18T03:29:25.597Z,69.37
2024-04-18T03:30:25.580Z,74.45
2024-04-18T03:31:25.598Z,70.65
2024-04-18T03:32:25.645Z,69.64
2024-04-18T03:33:25.646Z,72.16
2024-04-18T03:34:25.549Z,68.93
2024-04-18T03:35:25.560Z,71.30
2024-04-18T03:36:25.568Z,66.95
2024-04-18T03:37:25.527Z,73.61
2024-04-18T03:38:25.543Z,66.76
2024-04-18T03:39:25.556Z,72.63
2024-04-18T03:40:25.980Z,70.20
2024-04-18T03:41:25.509Z,72.18
2024-04-18T03:42:25.523Z,68.05
2024-04-18T03:43:25.527Z,69.91
2024-04-18T03:44:25.505Z,71.97
2024-04-18T03:45:25.528Z,72.68
2024-04-18T03:46:25.486Z,73.22
2024-04-18T03:47:25.555Z,74.08
2024-04-18T03:48:25.491Z,68.69
2024-04-18T03:49:25.456Z,67.25
2024-04-18T03:50:25.468Z,70.73
2024-04-18T03:51:25.474Z,75.20
2024-04-18T03:52:25.447Z,75.76
2024-04-18T03:53:25.443Z,70.95
2024-04-18T03:54:25.445Z,72.04
2024-04-18T03:55:25.483Z,74.93
2024-04-18T03:56:25.447Z,70.65
2024-04-18T03:57:25.467Z,73.92
2024-04-18T03:58:25.405Z,69.93
2024-04-18T03:59:25.395Z,71.68
2024-04-18T04:00:25.401Z,68.93
2024-04-18T04:01:25.669Z,70.33
2024-04-18T04:02:25.438Z,74.67
2024-04-18T04:03:25.404Z,68.62
2024-04-18T04:04:25.464Z,72.93
2024-04-18T04:05:25.360Z,70.07
2024-04-18T04:06:25.482Z,66.96
2024-04-18T04:07:25.375Z,75.73
2024-04-18T04:08:25.338Z,76.62
2024-04-18T04:09:25.346Z,71.51
2024-04-18T04:10:25.333Z,69.26
2024-04-18T04:11:25.354Z,71.07
2024-04-18T04:12:25.346Z,72.60
2024-04-18T04:13:25.309Z,70.50
2024-04-18T04:14:25.338Z,74.15
2024-04-18T04:15:25.314Z,71.94
2024-04-18T04:16:25.298Z,65.39
2024-04-18T04:17:25.305Z,71.29
2024-04-18T04:18:25.366Z,65.67
2024-04-18T04:19:25.325Z,68.75
2024-04-18T04:20:25.899Z,74.43
2024-04-18T04:21:25.329Z,74.90
2024-04-18T04:22:25.288Z,71.89
2024-04-18T04:23:25.334Z,73.60
2024-04-18T04:24:25.324Z,71.15
2024-04-18T04:25:25.240Z,75.30
2024-04-18T04:26:25.231Z,72.60
2024-04-18T04:27:25.252Z,75.11
2024-04-18T04:28:25.252Z,75.10
2024-04-18T04:29:25.225Z,71.32
2024-04-18T04:30:25.243Z,74.97
2024-04-18T04:31:25.204Z,77.73
2024-04-18T04:32:25.346Z,74.63
2024-04-18T04:33:25.226Z,73.62
2024-04-18T04:34:25.193Z,74.11
2024-04-18T04:35:25.171Z,71.41
2024-04-18T04:36:25.776Z,73.00
2024-04-18T04:37:26.203Z,72.34
2024-04-18T04:38:25.207Z,74.15
2024-04-18T04:39:25.231Z,75.06
2024-04-18T04:40:25.155Z,71.60
2024-04-18T04:41:25.147Z,74.57
2024-04-18T04:42:25.197Z,73.70
2024-04-18T04:43:25.132Z,72.29
2024-04-18T04:44:25.163Z,73.16
2024-04-18T04:45:25.208Z,75.65
2024-04-18T04:46:25.098Z,77.03
2024-04-18T04:47:25.198Z,74.22
2024-04-18T04:48:25.353Z,71.26
2024-04-18T04:49:25.193Z,74.61
2024-04-18T04:50:25.236Z,75.60
2024-04-18T04:51:25.090Z,74.69
2024-04-18T04:52:25.073Z,73.20
2024-04-18T04:53:25.131Z,73.87
2024-04-18T04:54:25.962Z,73.95
2024-04-18T04:55:25.057Z,73.58
2024-04-18T04:56:25.109Z,73.70
2024-04-18T04:57:25.090Z,73.21
2024-04-18T04:58:25.070Z,74.85
2024-04-18T04:59:25.086Z,71.47
2024-04-18T05:00:25.074Z,73.39
2024-04-18T05:01:25.074Z,72.30
2024-04-18T05:02:25.044Z,71.24
2024-04-18T05:03:25.074Z,75.96
2024-04-18T05:04:25.555Z,75.61
2024-04-18T05:05:25.035Z,73.60
2024-04-18T05:06:25.071Z,75.49
2024-04-18T05:07:24.974Z,72.18
2024-04-18T05:08:24.964Z,72.71
2024-04-18T05:09:25.010Z,75.90
2024-04-18T05:10:24.946Z,72.45
2024-04-18T05:11:25.020Z,73.93
2024-04-18T05:12:24.983Z,74.93
2024-04-18T05:13:24.964Z,73.21
2024-04-18T05:14:24.978Z,73.38
2024-04-18T05:15:24.991Z,71.82
2024-04-18T05:16:26.412Z,72.61
2024-04-18T05:17:26.089Z,71.84
2024-04-18T05:18:24.912Z,72.88
2024-04-18T05:19:24.915Z,81.16
2024-04-18T05:20:25.066Z,76.08
2024-04-18T05:21:24.901Z,73.53
2024-04-18T05:22:24.893Z,74.19
2024-04-18T05:23:24.943Z,76.23
2024-04-18T05:24:24.913Z,73.30
2024-04-18T05:25:24.892Z,73.54
2024-04-18T05:26:24.849Z,75.82
2024-04-18T05:27:24.910Z,73.89
2024-04-18T05:28:24.881Z,74.66
2024-04-18T05:29:24.950Z,74.04
2024-04-18T05:30:24.952Z,78.43
2024-04-18T05:31:24.925Z,71.15
2024-04-18T05:32:24.936Z,74.58
2024-04-18T05:33:24.932Z,74.27
2024-04-18T05:34:24.826Z,68.42
2024-04-18T05:35:24.817Z,74.90
2024-04-18T05:36:24.829Z,73.38
2024-04-18T05:37:24.859Z,75.28
2024-04-18T05:38:24.896Z,77.72
2024-04-18T05:39:24.852Z,69.34
2024-04-18T05:40:24.849Z,78.21
2024-04-18T05:41:24.774Z,72.72
2024-04-18T05:42:24.810Z,74.38
2024-04-18T05:43:24.822Z,68.59
2024-04-18T05:44:24.803Z,72.26
2024-04-18T05:45:24.842Z,74.74
2024-04-18T05:46:24.750Z,70.26
2024-04-18T05:47:24.853Z,72.37
2024-04-18T05:48:24.796Z,75.89
2024-04-18T05:49:24.728Z,76.03
2024-04-18T05:50:24.816Z,74.22
2024-04-18T05:51:24.787Z,75.05
2024-04-18T05:52:24.794Z,75.00
2024-04-18T05:53:24.724Z,75.54
2024-04-18T05:54:24.740Z,73.57
2024-04-18T05:55:24.740Z,70.12
2024-04-18T05:56:25.024Z,75.64
2024-04-18T05:57:24.741Z,75.80
2024-04-18T05:58:24.679Z,75.77
2024-04-18T05:59:24.669Z,73.83
2024-04-18T06:00:24.676Z,71.28
2024-04-18T06:01:24.782Z,74.28
2024-04-18T06:02:31.453Z,75.74
2024-04-18T06:03:24.656Z,75.49
2024-04-18T06:04:24.730Z,76.75
2024-04-18T06:05:24.638Z,72.02
2024-04-18T06:06:24.704Z,71.37
2024-04-18T06:07:24.669Z,73.01
2024-04-18T06:08:24.651Z,71.12
2024-04-18T06:09:24.647Z,75.69
2024-04-18T06:10:24.690Z,73.05
2024-04-18T06:11:24.690Z,74.92
2024-04-18T06:12:24.668Z,73.81
2024-04-18T06:13:24.615Z,72.07
2024-04-18T06:14:24.624Z,71.31
2024-04-18T06:15:24.582Z,75.15
2024-04-18T06:16:24.741Z,75.71
2024-04-18T06:17:24.554Z,74.45
2024-04-18T06:18:24.603Z,74.19
2024-04-18T06:19:27.044Z,74.22
2024-04-18T06:20:24.571Z,73.99
2024-04-18T06:21:24.596Z,75.08
2024-04-18T06:22:24.539Z,73.61
2024-04-18T06:23:24.529Z,73.77
2024-04-18T06:24:24.537Z,72.08
2024-04-18T06:25:24.521Z,73.42
2024-04-18T06:26:24.533Z,73.53
2024-04-18T06:27:24.524Z,76.82
2024-04-18T06:28:24.499Z,72.61
2024-04-18T06:29:24.538Z,76.90
2024-04-18T06:30:24.543Z,75.29
2024-04-18T06:31:24.529Z,74.05
2024-04-18T06:32:24.511Z,74.38
2024-04-18T06:33:24.627Z,75.17
2024-04-18T06:34:24.540Z,73.09
2024-04-18T06:35:24.475Z,73.38
2024-04-18T06:36:24.488Z,74.64
2024-04-18T06:37:24.452Z,73.37
2024-04-18T06:38:24.452Z,73.90
2024-04-18T06:39:24.487Z,73.30
2024-04-18T06:40:24.463Z,75.38
2024-04-18T06:41:24.444Z,70.49
2024-04-18T06:42:24.419Z,73.71
2024-04-18T06:43:25.211Z,71.87
2024-04-18T06:44:25.387Z,72.45
2024-04-18T06:45:24.391Z,76.56
2024-04-18T06:46:24.436Z,74.31
2024-04-18T06:47:24.404Z,76.77
2024-04-18T06:48:24.608Z,73.42
2024-04-18T06:49:24.379Z,75.72
2024-04-18T06:50:26.774Z,73.26
2024-04-18T06:51:24.513Z,73.59
2024-04-18T06:52:24.403Z,73.67
2024-04-18T06:53:24.351Z,72.03
2024-04-18T06:54:24.368Z,72.17
2024-04-18T06:55:24.374Z,75.64
2024-04-18T06:56:24.357Z,72.98
2024-04-18T06:57:24.448Z,74.11
2024-04-18T06:58:24.310Z,71.00
2024-04-18T06:59:24.365Z,75.22
2024-04-18T07:00:24.332Z,74.33
2024-04-18T07:01:24.374Z,74.50
2024-04-18T07:02:24.320Z,73.87
2024-04-18T07:03:24.543Z,72.89
2024-04-18T07:04:24.456Z,71.80
2024-04-18T07:05:24.343Z,73.50
2024-04-18T07:06:24.337Z,71.87
2024-04-18T07:07:24.285Z,71.76
2024-04-18T07:08:24.670Z,73.84
2024-04-18T07:09:24.322Z,72.89
2024-04-18T07:10:24.247Z,70.90
2024-04-18T07:11:24.304Z,71.48
2024-04-18T07:12:24.291Z,75.94
2024-04-18T07:13:24.340Z,72.93
2024-04-18T07:14:24.256Z,72.08
2024-04-18T07:15:24.262Z,68.25
2024-04-18T07:16:24.208Z,74.36
2024-04-18T07:17:24.325Z,70.76
2024-04-18T07:18:24.310Z,65.75
2024-04-18T07:19:24.260Z,73.23
2024-04-18T07:20:24.224Z,74.63
2024-04-18T07:21:24.252Z,70.39
2024-04-18T07:22:24.197Z,69.76
2024-04-18T07:23:24.211Z,72.91
2024-04-18T07:24:24.216Z,72.80
2024-04-18T07:25:24.232Z,74.51
2024-04-18T07:26:24.963Z,73.02
2024-04-18T07:27:24.287Z,69.95
2024-04-18T07:28:24.205Z,73.33
2024-04-18T07:29:24.164Z,71.04
2024-04-18T07:30:24.178Z,71.97
2024-04-18T07:31:24.209Z,70.91
2024-04-18T07:32:24.128Z,75.98
2024-04-18T07:33:24.400Z,69.32
2024-04-18T07:34:24.357Z,71.49
2024-04-18T07:35:24.103Z,72.74
2024-04-18T07:36:24.176Z,71.12
2024-04-18T07:37:24.107Z,72.67
2024-04-18T07:38:24.147Z,72.16
2024-04-18T07:39:24.155Z,73.10
2024-04-18T07:40:24.081Z,73.36
2024-04-18T07:41:24.061Z,70.90
2024-04-18T07:42:24.169Z,72.34
2024-04-18T07:43:24.059Z,73.23
2024-04-18T07:44:25.112Z,73.02
2024-04-18T07:45:25.193Z,75.29
2024-04-18T07:46:24.013Z,72.07
2024-04-18T07:47:24.080Z,71.47
2024-04-18T07:48:24.126Z,72.11
2024-04-18T07:49:24.094Z,71.73
2024-04-18T07:50:24.033Z,74.88
2024-04-18T07:51:24.198Z,71.73
2024-04-18T07:52:24.080Z,73.71
2024-04-18T07:53:24.946Z,72.03
2024-04-18T07:54:24.057Z,74.96
2024-04-18T07:55:23.951Z,70.01
2024-04-18T07:56:24.559Z,69.12
2024-04-18T07:57:24.653Z,73.23
2024-04-18T07:58:24.387Z,69.04
2024-04-18T07:59:24.408Z,74.04
2024-04-18T08:00:25.429Z,74.42
2024-04-18T08:01:25.234Z,75.02
2024-04-18T08:02:25.463Z,72.02
2024-04-18T08:03:25.923Z,71.05
2024-04-18T08:04:44.999Z,66.09
2024-04-18T08:05:27.740Z,71.11
2024-04-18T08:06:26.692Z,74.82
2024-04-18T08:07:28.409Z,69.09
2024-04-18T08:08:27.498Z,74.67
2024-04-18T08:09:26.142Z,73.35
2024-04-18T08:10:32.805Z,73.71
2024-04-18T08:11:53.542Z,73.35
2024-04-18T08:12:29.677Z,73.15
2024-04-18T08:13:27.883Z,69.98
2024-04-18T08:14:29.543Z,74.36
2024-04-18T08:16:24.893Z,74.30
2024-04-18T08:17:23.932Z,71.67
2024-04-18T08:18:23.884Z,70.64
2024-04-18T08:19:23.816Z,71.78
2024-04-18T08:20:23.781Z,76.06
2024-04-18T08:21:23.914Z,70.99
2024-04-18T08:22:23.769Z,76.39
2024-04-18T08:23:23.773Z,68.58
2024-04-18T08:24:23.819Z,72.05
2024-04-18T08:25:23.873Z,71.74
2024-04-18T08:26:23.771Z,73.28
2024-04-18T08:27:23.740Z,71.37
2024-04-18T08:28:23.813Z,69.58
2024-04-18T08:29:23.696Z,73.53
2024-04-18T08:30:23.761Z,71.00
2024-04-18T08:31:23.773Z,72.95
2024-04-18T08:32:23.767Z,72.79
2024-04-18T08:33:24.813Z,70.80
2024-04-18T08:34:25.035Z,72.11
2024-04-18T08:35:23.681Z,72.68
2024-04-18T08:36:23.761Z,69.02
2024-04-18T08:37:23.660Z,70.57
2024-04-18T08:38:23.710Z,66.93
2024-04-18T08:39:23.680Z,71.13
2024-04-18T08:40:23.702Z,71.55
2024-04-18T08:41:23.736Z,72.78
2024-04-18T08:42:23.725Z,69.26
2024-04-18T08:43:23.683Z,72.47
2024-04-18T08:44:23.613Z,71.96
2024-04-18T08:45:23.661Z,69.99
2024-04-18T08:46:23.612Z,74.15
2024-04-18T08:47:23.675Z,69.55
2024-04-18T08:48:23.742Z,76.83
2024-04-18T08:49:23.639Z,72.05
2024-04-18T08:50:23.703Z,71.45
2024-04-18T08:51:23.621Z,67.39
2024-04-18T08:52:23.580Z,71.62
2024-04-18T08:53:23.601Z,73.27
2024-04-18T08:54:23.668Z,72.35
2024-04-18T08:55:23.626Z,74.24
2024-04-18T08:56:23.544Z,74.99
2024-04-18T08:57:23.631Z,73.55
2024-04-18T08:58:23.621Z,72.43
2024-04-18T08:59:23.573Z,73.70
2024-04-18T09:00:23.589Z,70.96
2024-04-18T09:01:23.574Z,74.54
2024-04-18T09:02:23.580Z,74.56
2024-04-18T09:03:23.674Z,74.76
2024-04-18T09:04:23.559Z,71.61
2024-04-18T09:05:23.516Z,74.34
2024-04-18T09:06:23.619Z,73.58
2024-04-18T09:07:23.570Z,73.72
2024-04-18T09:08:23.499Z,70.55
2024-04-18T09:09:23.491Z,72.56
2024-04-18T09:10:23.497Z,70.89
2024-04-18T09:11:23.651Z,71.96
2024-04-18T09:12:23.522Z,76.81
2024-04-18T09:13:24.424Z,75.46
2024-04-18T09:14:24.473Z,72.54
2024-04-18T09:15:23.623Z,73.70
2024-04-18T09:16:23.433Z,71.92
2024-04-18T09:17:23.587Z,73.60
2024-04-18T09:18:23.526Z,74.47
2024-04-18T09:19:24.581Z,74.65
2024-04-18T09:20:23.454Z,74.37
2024-04-18T09:21:23.422Z,71.55
2024-04-18T09:22:23.444Z,74.94
2024-04-18T09:23:23.402Z,70.54
2024-04-18T09:24:23.444Z,72.79
2024-04-18T09:25:23.352Z,73.46
2024-04-18T09:26:23.353Z,72.06
2024-04-18T09:27:24.378Z,67.28
2024-04-18T09:28:23.396Z,71.40
2024-04-18T09:29:23.366Z,71.01
2024-04-18T09:30:23.482Z,72.83
2024-04-18T09:31:30.422Z,74.20
2024-04-18T09:32:25.381Z,74.60
2024-04-18T09:33:23.407Z,70.79
2024-04-18T09:34:23.468Z,75.65
2024-04-18T09:35:23.324Z,71.33
2024-04-18T09:36:23.435Z,72.13
2024-04-18T09:37:23.366Z,71.50
2024-04-18T09:38:23.301Z,74.73
2024-04-18T09:39:23.428Z,74.69
2024-04-18T09:40:23.356Z,72.74
2024-04-18T09:41:23.315Z,73.53
2024-04-18T09:42:23.996Z,71.10
2024-04-18T09:43:23.277Z,72.54
2024-04-18T09:44:25.361Z,72.79
2024-04-18T09:45:23.542Z,72.07
2024-04-18T09:46:23.238Z,72.61
2024-04-18T09:47:23.248Z,71.79
2024-04-18T09:48:23.393Z,73.45
2024-04-18T09:49:23.431Z,69.91
2024-04-18T09:50:23.212Z,71.40
2024-04-18T09:51:23.257Z,73.63
2024-04-18T09:52:23.218Z,70.62
2024-04-18T09:53:23.204Z,75.99
2024-04-18T09:54:23.988Z,73.33
2024-04-18T09:55:25.587Z,71.64
2024-04-18T09:56:24.222Z,74.03
2024-04-18T09:57:23.181Z,72.76
2024-04-18T09:58:23.195Z,74.30
2024-04-18T09:59:23.249Z,76.45
2024-04-18T10:00:23.337Z,71.91
2024-04-18T10:01:23.185Z,74.81
2024-04-18T10:02:23.183Z,74.59
2024-04-18T10:03:23.230Z,71.33
2024-04-18T10:04:23.246Z,76.01
2024-04-18T10:05:23.149Z,72.67
2024-04-18T10:06:23.242Z,73.88
2024-04-18T10:07:23.144Z,72.65
2024-04-18T10:08:23.136Z,73.00
2024-04-18T10:09:23.164Z,73.02
2024-04-18T10:10:23.105Z,71.59
2024-04-18T10:11:23.222Z,74.95
2024-04-18T10:12:23.207Z,72.72
2024-04-18T10:13:23.220Z,73.53
2024-04-18T10:14:23.100Z,72.97
2024-04-18T10:15:23.222Z,71.63
2024-04-18T10:16:23.075Z,73.05
2024-04-18T10:17:23.082Z,72.31
2024-04-18T10:18:23.167Z,71.86
2024-04-18T10:19:23.103Z,75.06
2024-04-18T10:20:24.032Z,70.78
2024-04-18T10:21:32.087Z,72.92
2024-04-18T10:22:36.203Z,74.33
2024-04-18T10:23:24.032Z,75.38
2024-04-18T10:24:23.148Z,74.26
2024-04-18T10:25:22.984Z,69.57
2024-04-18T10:26:23.033Z,74.51
2024-04-18T10:27:23.049Z,72.42
2024-04-18T10:28:23.015Z,73.26
2024-04-18T10:29:23.022Z,73.52
2024-04-18T10:30:23.015Z,71.07
2024-04-18T10:31:22.974Z,75.19
2024-04-18T10:32:22.992Z,74.91
2024-04-18T10:33:23.101Z,71.79
2024-04-18T10:34:23.813Z,70.59
2024-04-18T10:35:22.974Z,71.87
2024-04-18T10:36:22.950Z,72.84
2024-04-18T10:37:23.839Z,71.49
2024-04-18T10:38:22.975Z,70.47
2024-04-18T10:39:23.351Z,71.19
2024-04-18T10:40:22.953Z,72.01
2024-04-18T10:41:22.902Z,73.25
2024-04-18T10:42:23.026Z,70.84
2024-04-18T10:43:22.903Z,71.25
2024-04-18T10:44:23.938Z,70.22
2024-04-18T10:45:22.899Z,74.15
2024-04-18T10:46:22.862Z,74.66
2024-04-18T10:47:22.942Z,74.50
2024-04-18T10:48:23.047Z,72.63
2024-04-18T10:49:22.983Z,75.27
2024-04-18T10:50:22.917Z,74.14
2024-04-18T10:51:22.940Z,73.46
2024-04-18T10:52:22.873Z,72.41
2024-04-18T10:53:22.818Z,72.54
2024-04-18T10:54:22.833Z,70.99
2024-04-18T10:55:22.814Z,74.48
2024-04-18T10:56:22.842Z,73.45
2024-04-18T10:57:22.898Z,71.85
2024-04-18T10:58:22.789Z,71.21
2024-04-18T10:59:22.856Z,76.10
2024-04-18T11:00:22.845Z,72.94
2024-04-18T11:01:22.830Z,72.35
2024-04-18T11:02:22.886Z,73.25
2024-04-18T11:03:22.859Z,70.88
2024-04-18T11:04:22.916Z,71.10
2024-04-18T11:05:22.792Z,72.99
2024-04-18T11:06:22.776Z,74.03
2024-04-18T11:07:22.758Z,74.19
2024-04-18T11:08:22.733Z,74.73
2024-04-18T11:09:22.855Z,72.40
2024-04-18T11:10:22.752Z,72.43
2024-04-18T11:11:22.746Z,73.00
2024-04-18T11:12:22.758Z,72.72
2024-04-18T11:13:24.033Z,72.30
2024-04-18T11:14:23.171Z,73.53
2024-04-18T11:15:26.443Z,73.46
2024-04-18T11:16:25.746Z,72.63
2024-04-18T11:17:29.011Z,71.56
2024-04-18T11:18:31.716Z,71.80
2024-04-18T11:19:25.187Z,74.28
2024-04-18T11:20:23.043Z,73.79
2024-04-18T11:21:24.963Z,74.06
2024-04-18T11:22:22.699Z,75.23
2024-04-18T11:23:29.197Z,75.13
2024-04-18T11:24:25.874Z,73.37
2024-04-18T11:25:23.860Z,71.52
2024-04-18T11:26:22.764Z,73.63
2024-04-18T11:27:24.629Z,73.35
2024-04-18T11:28:25.686Z,72.77
2024-04-18T11:29:25.151Z,74.61
2024-04-18T11:30:22.690Z,74.45
2024-04-18T11:31:22.795Z,73.55
2024-04-18T11:32:22.853Z,73.97
2024-04-18T11:33:22.765Z,75.10
2024-04-18T11:34:23.606Z,75.06
2024-04-18T11:35:22.691Z,73.83
2024-04-18T11:36:23.003Z,74.42
2024-04-18T11:37:22.648Z,74.56
2024-04-18T11:38:22.575Z,72.46
2024-04-18T11:39:22.966Z,72.98
2024-04-18T11:40:22.552Z,73.03
2024-04-18T11:41:22.537Z,74.07
2024-04-18T11:42:24.025Z,72.23
2024-04-18T11:43:22.508Z,73.80
2024-04-18T11:44:23.543Z,73.25
2024-04-18T11:45:22.590Z,72.54
2024-04-18T11:46:22.499Z,74.84
2024-04-18T11:47:22.516Z,70.66
2024-04-18T11:48:22.582Z,75.72
2024-04-18T11:49:22.497Z,74.09
2024-04-18T11:50:22.493Z,74.71
2024-04-18T11:51:22.492Z,73.82
2024-04-18T11:52:22.508Z,72.81
2024-04-18T11:53:22.473Z,73.98
2024-04-18T11:54:22.451Z,70.19
2024-04-18T11:55:23.498Z,74.67
2024-04-18T11:56:22.485Z,74.26
2024-04-18T11:57:22.488Z,71.96
2024-04-18T11:58:22.400Z,74.36
2024-04-18T11:59:22.419Z,71.13
2024-04-18T12:00:22.516Z,76.83
2024-04-18T12:01:22.401Z,71.44
2024-04-18T12:02:22.928Z,76.47
2024-04-18T12:03:22.436Z,74.24
2024-04-18T12:04:22.404Z,76.69
2024-04-18T12:05:22.497Z,73.30
2024-04-18T12:06:22.410Z,74.33
2024-04-18T12:07:22.351Z,74.03
2024-04-18T12:08:22.407Z,71.98
2024-04-18T12:09:22.387Z,75.77
2024-04-18T12:10:22.393Z,75.56
2024-04-18T12:11:22.396Z,75.07
2024-04-18T12:12:22.386Z,75.42
2024-04-18T12:13:22.353Z,70.86
2024-04-18T12:14:22.304Z,76.89
2024-04-18T12:15:22.329Z,74.84
2024-04-18T12:16:23.011Z,74.49
2024-04-18T12:17:22.333Z,74.50
2024-04-18T12:18:22.298Z,72.93
2024-04-18T12:19:22.335Z,74.42
2024-04-18T12:20:22.318Z,73.10
2024-04-18T12:21:22.294Z,74.65
2024-04-18T12:22:22.294Z,74.34
2024-04-18T12:23:22.271Z,76.19
2024-04-18T12:24:22.363Z,75.65
2024-04-18T12:25:22.273Z,75.58
2024-04-18T12:26:22.212Z,74.64
2024-04-18T12:27:22.437Z,69.64
2024-04-18T12:28:22.203Z,76.41
2024-04-18T12:29:22.373Z,74.89
2024-04-18T12:30:22.362Z,75.47
2024-04-18T12:31:22.248Z,73.71
2024-04-18T12:32:22.274Z,78.47
2024-04-18T12:33:22.354Z,74.34
2024-04-18T12:34:22.195Z,75.23
2024-04-18T12:35:22.167Z,71.55
2024-04-18T12:36:22.211Z,76.44
2024-04-18T12:37:22.173Z,75.29
2024-04-18T12:38:22.837Z,73.91
2024-04-18T12:39:22.240Z,74.11
2024-04-18T12:40:22.168Z,74.61
2024-04-18T12:41:22.172Z,73.16
2024-04-18T12:42:22.258Z,74.51
2024-04-18T12:43:22.143Z,71.70
2024-04-18T12:44:22.151Z,74.40
2024-04-18T12:45:22.131Z,74.07
2024-04-18T12:46:23.858Z,74.05
2024-04-18T12:47:23.226Z,76.31
2024-04-18T12:48:22.427Z,74.50
2024-04-18T12:49:22.236Z,73.48
2024-04-18T12:50:22.209Z,74.18
2024-04-18T12:51:22.170Z,73.19
2024-04-18T12:52:22.102Z,73.02
2024-04-18T12:53:22.111Z,74.83
2024-04-18T12:54:22.108Z,75.24